sensor_id;sensor_type;location;lat;lon;timestamp;P1;durP1;ratioP1;P2;durP2;ratioP2
11893;SDS011;6006;49.696;8.662;2024-02-21T00:01:55;5.37;;;3.00;;
11893;SDS011;6006;49.696;8.662;2024-02-21T00:04:22;3.67;;;2.23;;
11893;SDS011;6006;49.696;8.662;2024-02-21T00:06:48;2.97;;;2.17;;
11893;SDS011;6006;49.696;8.662;2024-02-21T00:09:15;5.67;;;2.80;;
11893;SDS011;6006;49.696;8.662;2024-02-21T00:11:45;5.20;;;2.20;;
11893;SDS011;6006;49.696;8.662;2024-02-21T00:14:12;3.93;;;2.20;;
11893;SDS011;6006;49.696;8.662;2024-02-21T00:16:39;6.93;;;2.53;;
11893;SDS011;6006;49.696;8.662;2024-02-21T00:19:06;6.03;;;3.10;;
11893;SDS011;6006;49.696;8.662;2024-02-21T00:21:33;7.27;;;2.53;;
11893;SDS011;6006;49.696;8.662;2024-02-21T00:24:00;5.70;;;2.63;;
11893;SDS011;6006;49.696;8.662;2024-02-21T00:26:26;5.67;;;2.97;;
11893;SDS011;6006;49.696;8.662;2024-02-21T00:28:55;3.73;;;2.67;;
11893;SDS011;6006;49.696;8.662;2024-02-21T00:31:22;9.30;;;3.10;;
11893;SDS011;6006;49.696;8.662;2024-02-21T00:33:48;4.23;;;2.30;;
11893;SDS011;6006;49.696;8.662;2024-02-21T00:36:15;4.67;;;2.60;;
11893;SDS011;6006;49.696;8.662;2024-02-21T00:38:42;5.03;;;2.23;;
11893;SDS011;6006;49.696;8.662;2024-02-21T00:41:10;3.83;;;2.80;;
11893;SDS011;6006;49.696;8.662;2024-02-21T00:43:36;4.67;;;2.43;;
11893;SDS011;6006;49.696;8.662;2024-02-21T00:46:06;6.77;;;3.23;;
11893;SDS011;6006;49.696;8.662;2024-02-21T00:48:33;5.00;;;2.90;;
11893;SDS011;6006;49.696;8.662;2024-02-21T00:51:00;8.33;;;2.73;;
11893;SDS011;6006;49.696;8.662;2024-02-21T00:53:27;7.47;;;2.63;;
11893;SDS011;6006;49.696;8.662;2024-02-21T00:55:54;3.80;;;2.33;;
11893;SDS011;6006;49.696;8.662;2024-02-21T00:58:21;5.43;;;2.60;;
11893;SDS011;6006;49.696;8.662;2024-02-21T01:00:48;3.50;;;2.03;;
11893;SDS011;6006;49.696;8.662;2024-02-21T01:03:17;4.97;;;2.00;;
11893;SDS011;6006;49.696;8.662;2024-02-21T01:05:44;6.23;;;2.97;;
11893;SDS011;6006;49.696;8.662;2024-02-21T01:08:11;6.50;;;2.23;;
11893;SDS011;6006;49.696;8.662;2024-02-21T01:10:37;4.00;;;2.03;;
11893;SDS011;6006;49.696;8.662;2024-02-21T01:13:04;6.80;;;2.23;;
11893;SDS011;6006;49.696;8.662;2024-02-21T01:15:32;7.40;;;2.67;;
11893;SDS011;6006;49.696;8.662;2024-02-21T01:17:59;4.23;;;2.47;;
11893;SDS011;6006;49.696;8.662;2024-02-21T01:20:27;6.13;;;2.63;;
11893;SDS011;6006;49.696;8.662;2024-02-21T01:22:54;11.00;;;3.00;;
11893;SDS011;6006;49.696;8.662;2024-02-21T01:25:21;5.27;;;2.13;;
11893;SDS011;6006;49.696;8.662;2024-02-21T01:27:49;4.87;;;2.40;;
11893;SDS011;6006;49.696;8.662;2024-02-21T01:30:17;4.53;;;2.37;;
11893;SDS011;6006;49.696;8.662;2024-02-21T01:32:44;2.00;;;1.77;;
11893;SDS011;6006;49.696;8.662;2024-02-21T01:35:10;2.00;;;1.80;;
11893;SDS011;6006;49.696;8.662;2024-02-21T01:37:39;5.60;;;2.17;;
11893;SDS011;6006;49.696;8.662;2024-02-21T01:40:06;5.73;;;2.40;;
11893;SDS011;6006;49.696;8.662;2024-02-21T01:42:37;5.00;;;2.30;;
11893;SDS011;6006;49.696;8.662;2024-02-21T01:45:04;6.33;;;2.23;;
11893;SDS011;6006;49.696;8.662;2024-02-21T01:47:32;3.33;;;1.60;;
11893;SDS011;6006;49.696;8.662;2024-02-21T01:49:59;5.30;;;2.87;;
11893;SDS011;6006;49.696;8.662;2024-02-21T01:52:27;6.57;;;2.20;;
11893;SDS011;6006;49.696;8.662;2024-02-21T01:54:55;5.43;;;2.13;;
11893;SDS011;6006;49.696;8.662;2024-02-21T01:57:23;2.83;;;2.10;;
11893;SDS011;6006;49.696;8.662;2024-02-21T01:59:50;10.20;;;2.70;;
11893;SDS011;6006;49.696;8.662;2024-02-21T02:02:18;6.63;;;2.37;;
11893;SDS011;6006;49.696;8.662;2024-02-21T02:04:45;4.77;;;2.40;;
11893;SDS011;6006;49.696;8.662;2024-02-21T02:07:12;5.17;;;1.93;;
11893;SDS011;6006;49.696;8.662;2024-02-21T02:09:39;5.13;;;2.40;;
11893;SDS011;6006;49.696;8.662;2024-02-21T02:12:08;4.47;;;2.17;;
11893;SDS011;6006;49.696;8.662;2024-02-21T02:14:35;3.83;;;2.17;;
11893;SDS011;6006;49.696;8.662;2024-02-21T02:17:02;3.33;;;2.43;;
11893;SDS011;6006;49.696;8.662;2024-02-21T02:19:29;8.73;;;2.77;;
11893;SDS011;6006;49.696;8.662;2024-02-21T02:21:58;6.13;;;2.53;;
11893;SDS011;6006;49.696;8.662;2024-02-21T02:24:34;3.10;;;1.90;;
11893;SDS011;6006;49.696;8.662;2024-02-21T02:27:01;4.20;;;3.03;;
11893;SDS011;6006;49.696;8.662;2024-02-21T02:29:28;5.70;;;2.27;;
11893;SDS011;6006;49.696;8.662;2024-02-21T02:31:57;3.37;;;1.90;;
11893;SDS011;6006;49.696;8.662;2024-02-21T02:34:24;5.77;;;2.00;;
11893;SDS011;6006;49.696;8.662;2024-02-21T02:36:51;2.50;;;2.00;;
11893;SDS011;6006;49.696;8.662;2024-02-21T02:39:19;4.03;;;2.10;;
11893;SDS011;6006;49.696;8.662;2024-02-21T02:41:48;3.00;;;1.80;;
11893;SDS011;6006;49.696;8.662;2024-02-21T02:44:15;7.17;;;2.30;;
11893;SDS011;6006;49.696;8.662;2024-02-21T02:46:42;3.00;;;2.20;;
11893;SDS011;6006;49.696;8.662;2024-02-21T02:49:09;3.53;;;2.37;;
11893;SDS011;6006;49.696;8.662;2024-02-21T02:51:35;4.23;;;2.37;;
11893;SDS011;6006;49.696;8.662;2024-02-21T02:54:02;4.40;;;1.90;;
11893;SDS011;6006;49.696;8.662;2024-02-21T02:56:29;5.27;;;2.70;;
11893;SDS011;6006;49.696;8.662;2024-02-21T02:58:58;7.73;;;2.30;;
11893;SDS011;6006;49.696;8.662;2024-02-21T03:01:24;4.53;;;2.07;;
11893;SDS011;6006;49.696;8.662;2024-02-21T03:03:52;6.13;;;2.23;;
11893;SDS011;6006;49.696;8.662;2024-02-21T03:06:19;4.90;;;2.53;;
11893;SDS011;6006;49.696;8.662;2024-02-21T03:08:46;6.00;;;1.57;;
11893;SDS011;6006;49.696;8.662;2024-02-21T03:11:13;1.87;;;1.73;;
11893;SDS011;6006;49.696;8.662;2024-02-21T03:13:40;6.03;;;1.90;;
11893;SDS011;6006;49.696;8.662;2024-02-21T03:16:09;4.03;;;1.90;;
11893;SDS011;6006;49.696;8.662;2024-02-21T03:18:36;3.93;;;2.43;;
11893;SDS011;6006;49.696;8.662;2024-02-21T03:21:03;4.03;;;1.87;;
11893;SDS011;6006;49.696;8.662;2024-02-21T03:23:30;3.90;;;2.10;;
11893;SDS011;6006;49.696;8.662;2024-02-21T03:25:57;3.20;;;2.00;;
11893;SDS011;6006;49.696;8.662;2024-02-21T03:28:24;5.67;;;2.50;;
11893;SDS011;6006;49.696;8.662;2024-02-21T03:30:51;6.17;;;2.00;;
11893;SDS011;6006;49.696;8.662;2024-02-21T03:33:19;4.63;;;2.40;;
11893;SDS011;6006;49.696;8.662;2024-02-21T03:35:47;4.53;;;2.13;;
11893;SDS011;6006;49.696;8.662;2024-02-21T03:38:14;6.73;;;2.40;;
11893;SDS011;6006;49.696;8.662;2024-02-21T03:40:41;3.40;;;1.77;;
11893;SDS011;6006;49.696;8.662;2024-02-21T03:43:08;5.10;;;2.10;;
11893;SDS011;6006;49.696;8.662;2024-02-21T03:45:35;5.23;;;2.37;;
11893;SDS011;6006;49.696;8.662;2024-02-21T03:48:02;5.07;;;2.53;;
11893;SDS011;6006;49.696;8.662;2024-02-21T03:50:30;2.57;;;2.00;;
11893;SDS011;6006;49.696;8.662;2024-02-21T03:52:57;3.20;;;2.40;;
11893;SDS011;6006;49.696;8.662;2024-02-21T03:55:24;3.83;;;1.90;;
11893;SDS011;6006;49.696;8.662;2024-02-21T03:57:51;3.30;;;1.97;;
11893;SDS011;6006;49.696;8.662;2024-02-21T04:00:18;5.67;;;1.77;;
11893;SDS011;6006;49.696;8.662;2024-02-21T04:02:45;4.93;;;2.40;;
11893;SDS011;6006;49.696;8.662;2024-02-21T04:05:14;6.87;;;2.23;;
11893;SDS011;6006;49.696;8.662;2024-02-21T04:07:43;4.30;;;2.27;;
11893;SDS011;6006;49.696;8.662;2024-02-21T04:10:10;5.57;;;2.30;;
11893;SDS011;6006;49.696;8.662;2024-02-21T04:12:37;4.63;;;2.20;;
11893;SDS011;6006;49.696;8.662;2024-02-21T04:15:04;5.13;;;2.20;;
11893;SDS011;6006;49.696;8.662;2024-02-21T04:17:31;8.13;;;2.40;;
11893;SDS011;6006;49.696;8.662;2024-02-21T04:20:01;2.67;;;2.27;;
11893;SDS011;6006;49.696;8.662;2024-02-21T04:22:30;4.77;;;2.30;;
11893;SDS011;6006;49.696;8.662;2024-02-21T04:24:59;2.30;;;2.00;;
11893;SDS011;6006;49.696;8.662;2024-02-21T04:27:26;2.87;;;2.03;;
11893;SDS011;6006;49.696;8.662;2024-02-21T04:29:53;7.87;;;2.13;;
11893;SDS011;6006;49.696;8.662;2024-02-21T04:32:20;4.30;;;2.07;;
11893;SDS011;6006;49.696;8.662;2024-02-21T04:34:47;2.60;;;2.03;;
11893;SDS011;6006;49.696;8.662;2024-02-21T04:37:14;2.50;;;2.03;;
11893;SDS011;6006;49.696;8.662;2024-02-21T04:39:40;2.67;;;2.17;;
11893;SDS011;6006;49.696;8.662;2024-02-21T04:42:09;3.80;;;2.10;;
11893;SDS011;6006;49.696;8.662;2024-02-21T04:44:35;2.80;;;1.80;;
11893;SDS011;6006;49.696;8.662;2024-02-21T04:47:03;8.30;;;2.20;;
11893;SDS011;6006;49.696;8.662;2024-02-21T04:49:30;3.23;;;1.90;;
11893;SDS011;6006;49.696;8.662;2024-02-21T04:51:57;3.37;;;1.90;;
11893;SDS011;6006;49.696;8.662;2024-02-21T04:54:23;4.50;;;1.80;;
11893;SDS011;6006;49.696;8.662;2024-02-21T04:56:50;5.30;;;2.07;;
11893;SDS011;6006;49.696;8.662;2024-02-21T04:59:19;8.27;;;2.40;;
11893;SDS011;6006;49.696;8.662;2024-02-21T05:01:45;3.17;;;1.83;;
11893;SDS011;6006;49.696;8.662;2024-02-21T05:04:12;5.37;;;2.13;;
11893;SDS011;6006;49.696;8.662;2024-02-21T05:06:39;3.77;;;1.93;;
11893;SDS011;6006;49.696;8.662;2024-02-21T05:09:06;2.33;;;1.97;;
11893;SDS011;6006;49.696;8.662;2024-02-21T05:11:34;2.97;;;1.60;;
11893;SDS011;6006;49.696;8.662;2024-02-21T05:14:01;4.47;;;2.53;;
11893;SDS011;6006;49.696;8.662;2024-02-21T05:16:30;4.33;;;2.00;;
11893;SDS011;6006;49.696;8.662;2024-02-21T05:18:57;4.83;;;1.97;;
11893;SDS011;6006;49.696;8.662;2024-02-21T05:21:24;6.50;;;2.00;;
11893;SDS011;6006;49.696;8.662;2024-02-21T05:23:52;3.87;;;2.03;;
11893;SDS011;6006;49.696;8.662;2024-02-21T05:26:22;5.73;;;2.33;;
11893;SDS011;6006;49.696;8.662;2024-02-21T05:28:49;4.03;;;1.77;;
11893;SDS011;6006;49.696;8.662;2024-02-21T05:31:16;5.77;;;2.13;;
11893;SDS011;6006;49.696;8.662;2024-02-21T05:33:45;4.23;;;1.63;;
11893;SDS011;6006;49.696;8.662;2024-02-21T05:36:12;5.83;;;1.83;;
11893;SDS011;6006;49.696;8.662;2024-02-21T05:38:39;3.73;;;2.50;;
11893;SDS011;6006;49.696;8.662;2024-02-21T05:41:06;4.50;;;2.03;;
11893;SDS011;6006;49.696;8.662;2024-02-21T05:43:33;6.00;;;2.23;;
11893;SDS011;6006;49.696;8.662;2024-02-21T05:46:00;5.10;;;2.10;;
11893;SDS011;6006;49.696;8.662;2024-02-21T05:48:26;4.83;;;2.17;;
11893;SDS011;6006;49.696;8.662;2024-02-21T05:50:55;3.37;;;2.20;;
11893;SDS011;6006;49.696;8.662;2024-02-21T05:53:22;5.57;;;2.33;;
11893;SDS011;6006;49.696;8.662;2024-02-21T05:55:48;5.97;;;2.37;;
11893;SDS011;6006;49.696;8.662;2024-02-21T05:58:15;4.50;;;2.13;;
11893;SDS011;6006;49.696;8.662;2024-02-21T06:00:42;2.17;;;1.90;;
11893;SDS011;6006;49.696;8.662;2024-02-21T06:03:09;4.27;;;2.47;;
11893;SDS011;6006;49.696;8.662;2024-02-21T06:05:36;2.53;;;1.83;;
11893;SDS011;6006;49.696;8.662;2024-02-21T06:08:06;5.93;;;2.13;;
11893;SDS011;6006;49.696;8.662;2024-02-21T06:10:34;2.70;;;1.83;;
11893;SDS011;6006;49.696;8.662;2024-02-21T06:13:01;6.60;;;2.30;;
11893;SDS011;6006;49.696;8.662;2024-02-21T06:15:27;3.67;;;2.40;;
11893;SDS011;6006;49.696;8.662;2024-02-21T06:17:54;5.67;;;2.20;;
11893;SDS011;6006;49.696;8.662;2024-02-21T06:20:21;4.67;;;1.97;;
11893;SDS011;6006;49.696;8.662;2024-02-21T06:22:48;3.63;;;2.40;;
11893;SDS011;6006;49.696;8.662;2024-02-21T06:25:16;4.40;;;2.13;;
11893;SDS011;6006;49.696;8.662;2024-02-21T06:27:43;6.27;;;2.20;;
11893;SDS011;6006;49.696;8.662;2024-02-21T06:30:10;3.37;;;1.87;;
11893;SDS011;6006;49.696;8.662;2024-02-21T06:32:38;6.07;;;2.70;;
11893;SDS011;6006;49.696;8.662;2024-02-21T06:35:05;6.43;;;2.47;;
11893;SDS011;6006;49.696;8.662;2024-02-21T06:37:32;3.00;;;2.10;;
11893;SDS011;6006;49.696;8.662;2024-02-21T06:40:00;9.07;;;2.20;;
11893;SDS011;6006;49.696;8.662;2024-02-21T06:42:28;6.90;;;2.00;;
11893;SDS011;6006;49.696;8.662;2024-02-21T06:44:56;3.47;;;2.07;;
11893;SDS011;6006;49.696;8.662;2024-02-21T06:47:22;5.13;;;2.03;;
11893;SDS011;6006;49.696;8.662;2024-02-21T06:49:49;5.43;;;2.43;;
11893;SDS011;6006;49.696;8.662;2024-02-21T06:52:17;4.40;;;2.27;;
11893;SDS011;6006;49.696;8.662;2024-02-21T06:54:45;7.07;;;2.90;;
11893;SDS011;6006;49.696;8.662;2024-02-21T06:57:12;5.13;;;2.63;;
11893;SDS011;6006;49.696;8.662;2024-02-21T06:59:42;2.97;;;2.47;;
11893;SDS011;6006;49.696;8.662;2024-02-21T07:02:09;5.30;;;2.50;;
11893;SDS011;6006;49.696;8.662;2024-02-21T07:04:35;5.83;;;2.30;;
11893;SDS011;6006;49.696;8.662;2024-02-21T07:07:02;4.93;;;2.23;;
11893;SDS011;6006;49.696;8.662;2024-02-21T07:09:29;1.97;;;1.87;;
11893;SDS011;6006;49.696;8.662;2024-02-21T07:11:57;5.37;;;2.73;;
11893;SDS011;6006;49.696;8.662;2024-02-21T07:14:24;3.23;;;2.10;;
11893;SDS011;6006;49.696;8.662;2024-02-21T07:16:52;3.93;;;2.23;;
11893;SDS011;6006;49.696;8.662;2024-02-21T07:19:19;2.03;;;1.63;;
11893;SDS011;6006;49.696;8.662;2024-02-21T07:21:46;5.17;;;2.73;;
11893;SDS011;6006;49.696;8.662;2024-02-21T07:24:13;3.30;;;2.30;;
11893;SDS011;6006;49.696;8.662;2024-02-21T07:26:41;2.90;;;1.60;;
11893;SDS011;6006;49.696;8.662;2024-02-21T07:29:09;5.80;;;2.27;;
11893;SDS011;6006;49.696;8.662;2024-02-21T07:31:38;3.20;;;2.17;;
11893;SDS011;6006;49.696;8.662;2024-02-21T07:34:08;4.47;;;2.27;;
11893;SDS011;6006;49.696;8.662;2024-02-21T07:36:35;4.63;;;2.30;;
11893;SDS011;6006;49.696;8.662;2024-02-21T07:39:03;2.57;;;2.13;;
11893;SDS011;6006;49.696;8.662;2024-02-21T07:41:30;5.53;;;2.10;;
11893;SDS011;6006;49.696;8.662;2024-02-21T07:43:58;5.03;;;1.63;;
11893;SDS011;6006;49.696;8.662;2024-02-21T07:46:25;3.47;;;2.10;;
11893;SDS011;6006;49.696;8.662;2024-02-21T07:48:52;5.10;;;2.20;;
11893;SDS011;6006;49.696;8.662;2024-02-21T07:51:20;2.60;;;1.90;;
11893;SDS011;6006;49.696;8.662;2024-02-21T07:53:47;4.50;;;1.40;;
11893;SDS011;6006;49.696;8.662;2024-02-21T07:56:14;2.87;;;2.30;;
11893;SDS011;6006;49.696;8.662;2024-02-21T07:58:41;2.70;;;1.87;;
11893;SDS011;6006;49.696;8.662;2024-02-21T08:01:09;4.07;;;2.20;;
11893;SDS011;6006;49.696;8.662;2024-02-21T08:03:36;4.43;;;2.27;;
11893;SDS011;6006;49.696;8.662;2024-02-21T08:06:03;4.10;;;2.30;;
11893;SDS011;6006;49.696;8.662;2024-02-21T08:08:32;5.60;;;2.20;;
11893;SDS011;6006;49.696;8.662;2024-02-21T08:10:58;3.47;;;1.63;;
11893;SDS011;6006;49.696;8.662;2024-02-21T08:13:25;2.83;;;1.87;;
11893;SDS011;6006;49.696;8.662;2024-02-21T08:15:53;7.37;;;2.10;;
11893;SDS011;6006;49.696;8.662;2024-02-21T08:18:20;2.53;;;1.90;;
11893;SDS011;6006;49.696;8.662;2024-02-21T08:20:47;3.43;;;1.93;;
11893;SDS011;6006;49.696;8.662;2024-02-21T08:23:15;9.17;;;2.33;;
11893;SDS011;6006;49.696;8.662;2024-02-21T08:25:43;3.80;;;1.87;;
11893;SDS011;6006;49.696;8.662;2024-02-21T08:28:10;4.47;;;2.03;;
11893;SDS011;6006;49.696;8.662;2024-02-21T08:30:38;5.80;;;3.00;;
11893;SDS011;6006;49.696;8.662;2024-02-21T08:33:05;4.57;;;2.13;;
11893;SDS011;6006;49.696;8.662;2024-02-21T08:35:32;5.90;;;2.23;;
11893;SDS011;6006;49.696;8.662;2024-02-21T08:37:58;17.47;;;4.20;;
11893;SDS011;6006;49.696;8.662;2024-02-21T08:40:25;6.00;;;2.67;;
11893;SDS011;6006;49.696;8.662;2024-02-21T08:42:54;3.30;;;2.10;;
11893;SDS011;6006;49.696;8.662;2024-02-21T08:45:20;8.47;;;2.80;;
11893;SDS011;6006;49.696;8.662;2024-02-21T08:47:47;3.80;;;1.93;;
11893;SDS011;6006;49.696;8.662;2024-02-21T08:50:14;3.03;;;1.80;;
11893;SDS011;6006;49.696;8.662;2024-02-21T08:52:41;4.10;;;2.20;;
11893;SDS011;6006;49.696;8.662;2024-02-21T08:55:08;4.30;;;2.03;;
11893;SDS011;6006;49.696;8.662;2024-02-21T08:57:35;3.63;;;1.97;;
11893;SDS011;6006;49.696;8.662;2024-02-21T09:00:05;4.03;;;2.40;;
11893;SDS011;6006;49.696;8.662;2024-02-21T09:02:35;5.57;;;2.37;;
11893;SDS011;6006;49.696;8.662;2024-02-21T09:05:03;6.10;;;2.70;;
11893;SDS011;6006;49.696;8.662;2024-02-21T09:07:31;6.60;;;3.47;;
11893;SDS011;6006;49.696;8.662;2024-02-21T09:09:58;4.93;;;3.40;;
11893;SDS011;6006;49.696;8.662;2024-02-21T09:12:25;4.30;;;3.13;;
11893;SDS011;6006;49.696;8.662;2024-02-21T09:14:52;4.73;;;2.53;;
11893;SDS011;6006;49.696;8.662;2024-02-21T09:17:20;2.93;;;2.17;;
11893;SDS011;6006;49.696;8.662;2024-02-21T09:19:48;4.40;;;2.33;;
11893;SDS011;6006;49.696;8.662;2024-02-21T09:22:15;2.87;;;2.07;;
11893;SDS011;6006;49.696;8.662;2024-02-21T09:24:42;9.00;;;2.30;;
11893;SDS011;6006;49.696;8.662;2024-02-21T09:27:08;6.87;;;2.27;;
11893;SDS011;6006;49.696;8.662;2024-02-21T09:29:35;5.23;;;2.73;;
11893;SDS011;6006;49.696;8.662;2024-02-21T09:32:04;4.10;;;2.93;;
11893;SDS011;6006;49.696;8.662;2024-02-21T09:34:33;4.57;;;1.80;;
11893;SDS011;6006;49.696;8.662;2024-02-21T09:37:00;3.93;;;1.73;;
11893;SDS011;6006;49.696;8.662;2024-02-21T09:39:27;2.70;;;1.93;;
11893;SDS011;6006;49.696;8.662;2024-02-21T09:41:56;2.43;;;2.23;;
11893;SDS011;6006;49.696;8.662;2024-02-21T09:44:26;6.07;;;2.00;;
11893;SDS011;6006;49.696;8.662;2024-02-21T09:47:01;4.80;;;1.77;;
11893;SDS011;6006;49.696;8.662;2024-02-21T09:49:31;4.17;;;2.07;;
11893;SDS011;6006;49.696;8.662;2024-02-21T09:52:10;3.47;;;2.03;;
11893;SDS011;6006;49.696;8.662;2024-02-21T09:54:39;1.70;;;1.60;;
11893;SDS011;6006;49.696;8.662;2024-02-21T09:57:10;3.73;;;2.00;;
11893;SDS011;6006;49.696;8.662;2024-02-21T09:59:39;2.37;;;1.87;;
11893;SDS011;6006;49.696;8.662;2024-02-21T10:02:06;2.57;;;1.70;;
11893;SDS011;6006;49.696;8.662;2024-02-21T10:04:35;5.50;;;2.00;;
11893;SDS011;6006;49.696;8.662;2024-02-21T10:07:02;3.33;;;1.97;;
11893;SDS011;6006;49.696;8.662;2024-02-21T10:09:29;5.93;;;1.60;;
11893;SDS011;6006;49.696;8.662;2024-02-21T10:11:56;4.73;;;1.50;;
11893;SDS011;6006;49.696;8.662;2024-02-21T10:14:34;1.93;;;1.80;;
11893;SDS011;6006;49.696;8.662;2024-02-21T10:17:00;3.07;;;1.90;;
11893;SDS011;6006;49.696;8.662;2024-02-21T10:19:28;3.43;;;2.13;;
11893;SDS011;6006;49.696;8.662;2024-02-21T10:22:01;7.17;;;1.57;;
11893;SDS011;6006;49.696;8.662;2024-02-21T10:24:29;2.77;;;1.50;;
11893;SDS011;6006;49.696;8.662;2024-02-21T10:27:01;5.60;;;2.57;;
11893;SDS011;6006;49.696;8.662;2024-02-21T10:29:29;5.43;;;2.27;;
11893;SDS011;6006;49.696;8.662;2024-02-21T10:32:05;4.00;;;1.87;;
11893;SDS011;6006;49.696;8.662;2024-02-21T10:34:33;2.53;;;1.83;;
11893;SDS011;6006;49.696;8.662;2024-02-21T10:37:03;4.10;;;2.27;;
11893;SDS011;6006;49.696;8.662;2024-02-21T10:39:31;2.60;;;1.97;;
11893;SDS011;6006;49.696;8.662;2024-02-21T10:42:00;2.47;;;1.70;;
11893;SDS011;6006;49.696;8.662;2024-02-21T10:44:29;3.70;;;1.80;;
11893;SDS011;6006;49.696;8.662;2024-02-21T10:46:57;4.43;;;2.13;;
11893;SDS011;6006;49.696;8.662;2024-02-21T10:49:24;6.60;;;1.90;;
11893;SDS011;6006;49.696;8.662;2024-02-21T10:51:53;3.90;;;2.13;;
11893;SDS011;6006;49.696;8.662;2024-02-21T10:54:42;5.30;;;2.03;;
11893;SDS011;6006;49.696;8.662;2024-02-21T10:57:12;3.67;;;2.30;;
11893;SDS011;6006;49.696;8.662;2024-02-21T10:59:39;8.73;;;2.63;;
11893;SDS011;6006;49.696;8.662;2024-02-21T11:02:07;2.83;;;2.00;;
11893;SDS011;6006;49.696;8.662;2024-02-21T11:04:35;5.67;;;2.50;;
11893;SDS011;6006;49.696;8.662;2024-02-21T11:07:03;4.27;;;2.10;;
11893;SDS011;6006;49.696;8.662;2024-02-21T11:09:31;3.90;;;1.90;;
11893;SDS011;6006;49.696;8.662;2024-02-21T11:12:01;3.80;;;1.80;;
11893;SDS011;6006;49.696;8.662;2024-02-21T11:14:30;4.63;;;2.20;;
11893;SDS011;6006;49.696;8.662;2024-02-21T11:17:00;3.97;;;1.70;;
11893;SDS011;6006;49.696;8.662;2024-02-21T11:19:29;6.73;;;2.23;;
11893;SDS011;6006;49.696;8.662;2024-02-21T11:21:56;3.03;;;1.53;;
11893;SDS011;6006;49.696;8.662;2024-02-21T11:24:26;2.60;;;1.97;;
11893;SDS011;6006;49.696;8.662;2024-02-21T11:26:54;5.70;;;2.00;;
11893;SDS011;6006;49.696;8.662;2024-02-21T11:29:26;3.00;;;1.83;;
11893;SDS011;6006;49.696;8.662;2024-02-21T11:31:53;2.30;;;1.47;;
11893;SDS011;6006;49.696;8.662;2024-02-21T11:34:21;2.03;;;1.53;;
11893;SDS011;6006;49.696;8.662;2024-02-21T11:36:48;6.20;;;2.23;;
11893;SDS011;6006;49.696;8.662;2024-02-21T11:39:25;2.93;;;1.47;;
11893;SDS011;6006;49.696;8.662;2024-02-21T11:42:02;2.63;;;1.77;;
11893;SDS011;6006;49.696;8.662;2024-02-21T11:44:31;4.50;;;1.90;;
11893;SDS011;6006;49.696;8.662;2024-02-21T11:46:58;2.27;;;1.77;;
11893;SDS011;6006;49.696;8.662;2024-02-21T11:49:25;2.30;;;1.50;;
11893;SDS011;6006;49.696;8.662;2024-02-21T11:51:57;2.53;;;1.10;;
11893;SDS011;6006;49.696;8.662;2024-02-21T11:54:25;3.40;;;1.77;;
11893;SDS011;6006;49.696;8.662;2024-02-21T11:56:52;5.07;;;1.77;;
11893;SDS011;6006;49.696;8.662;2024-02-21T11:59:19;4.13;;;1.80;;
11893;SDS011;6006;49.696;8.662;2024-02-21T12:01:48;2.47;;;1.80;;
11893;SDS011;6006;49.696;8.662;2024-02-21T12:04:17;1.80;;;1.30;;
11893;SDS011;6006;49.696;8.662;2024-02-21T12:06:45;2.30;;;1.20;;
11893;SDS011;6006;49.696;8.662;2024-02-21T12:09:13;3.30;;;1.33;;
11893;SDS011;6006;49.696;8.662;2024-02-21T12:11:41;4.33;;;1.53;;
11893;SDS011;6006;49.696;8.662;2024-02-21T12:14:08;2.03;;;1.33;;
11893;SDS011;6006;49.696;8.662;2024-02-21T12:16:35;4.47;;;1.50;;
11893;SDS011;6006;49.696;8.662;2024-02-21T12:19:04;3.20;;;1.37;;
11893;SDS011;6006;49.696;8.662;2024-02-21T12:21:31;3.93;;;1.47;;
11893;SDS011;6006;49.696;8.662;2024-02-21T12:24:10;4.97;;;1.77;;
11893;SDS011;6006;49.696;8.662;2024-02-21T12:26:38;2.60;;;1.30;;
11893;SDS011;6006;49.696;8.662;2024-02-21T12:29:05;1.87;;;1.30;;
11893;SDS011;6006;49.696;8.662;2024-02-21T12:31:34;4.47;;;1.83;;
11893;SDS011;6006;49.696;8.662;2024-02-21T12:34:01;2.40;;;1.33;;
11893;SDS011;6006;49.696;8.662;2024-02-21T12:36:30;1.63;;;1.10;;
11893;SDS011;6006;49.696;8.662;2024-02-21T12:38:57;4.10;;;1.30;;
11893;SDS011;6006;49.696;8.662;2024-02-21T12:41:25;2.77;;;1.37;;
11893;SDS011;6006;49.696;8.662;2024-02-21T12:43:52;3.67;;;1.50;;
11893;SDS011;6006;49.696;8.662;2024-02-21T12:46:19;5.63;;;1.63;;
11893;SDS011;6006;49.696;8.662;2024-02-21T12:48:46;1.40;;;1.20;;
11893;SDS011;6006;49.696;8.662;2024-02-21T12:51:13;2.23;;;1.30;;
11893;SDS011;6006;49.696;8.662;2024-02-21T12:53:42;2.37;;;1.47;;
11893;SDS011;6006;49.696;8.662;2024-02-21T12:56:09;3.03;;;1.50;;
11893;SDS011;6006;49.696;8.662;2024-02-21T12:58:35;2.70;;;1.53;;
11893;SDS011;6006;49.696;8.662;2024-02-21T13:01:02;4.90;;;1.60;;
11893;SDS011;6006;49.696;8.662;2024-02-21T13:03:29;4.53;;;1.90;;
11893;SDS011;6006;49.696;8.662;2024-02-21T13:05:56;3.73;;;1.37;;
11893;SDS011;6006;49.696;8.662;2024-02-21T13:08:24;5.77;;;1.50;;
11893;SDS011;6006;49.696;8.662;2024-02-21T13:10:52;2.47;;;1.50;;
11893;SDS011;6006;49.696;8.662;2024-02-21T13:13:19;4.70;;;1.50;;
11893;SDS011;6006;49.696;8.662;2024-02-21T13:15:46;3.53;;;1.23;;
11893;SDS011;6006;49.696;8.662;2024-02-21T13:18:12;5.70;;;1.23;;
11893;SDS011;6006;49.696;8.662;2024-02-21T13:20:39;3.63;;;1.33;;
11893;SDS011;6006;49.696;8.662;2024-02-21T13:23:06;2.20;;;1.27;;
11893;SDS011;6006;49.696;8.662;2024-02-21T13:25:33;3.70;;;1.33;;
11893;SDS011;6006;49.696;8.662;2024-02-21T13:28:01;2.87;;;1.47;;
11893;SDS011;6006;49.696;8.662;2024-02-21T13:30:29;1.50;;;1.37;;
11893;SDS011;6006;49.696;8.662;2024-02-21T13:32:55;1.57;;;1.43;;
11893;SDS011;6006;49.696;8.662;2024-02-21T13:35:22;3.07;;;0.83;;
11893;SDS011;6006;49.696;8.662;2024-02-21T13:37:49;1.77;;;1.10;;
11893;SDS011;6006;49.696;8.662;2024-02-21T13:40:16;2.40;;;1.27;;
11893;SDS011;6006;49.696;8.662;2024-02-21T13:42:43;4.90;;;1.60;;
11893;SDS011;6006;49.696;8.662;2024-02-21T13:45:11;2.10;;;1.00;;
11893;SDS011;6006;49.696;8.662;2024-02-21T13:47:38;1.93;;;1.20;;
11893;SDS011;6006;49.696;8.662;2024-02-21T13:50:05;3.53;;;1.03;;
11893;SDS011;6006;49.696;8.662;2024-02-21T13:52:35;4.73;;;1.47;;
11893;SDS011;6006;49.696;8.662;2024-02-21T13:55:02;2.20;;;1.10;;
11893;SDS011;6006;49.696;8.662;2024-02-21T13:57:29;2.17;;;1.03;;
11893;SDS011;6006;49.696;8.662;2024-02-21T13:59:56;5.40;;;1.60;;
11893;SDS011;6006;49.696;8.662;2024-02-21T14:02:25;2.53;;;1.07;;
11893;SDS011;6006;49.696;8.662;2024-02-21T14:04:52;1.43;;;1.20;;
11893;SDS011;6006;49.696;8.662;2024-02-21T14:07:20;2.93;;;1.07;;
11893;SDS011;6006;49.696;8.662;2024-02-21T14:09:46;6.63;;;1.50;;
11893;SDS011;6006;49.696;8.662;2024-02-21T14:12:13;3.87;;;1.53;;
11893;SDS011;6006;49.696;8.662;2024-02-21T14:14:41;3.20;;;1.43;;
11893;SDS011;6006;49.696;8.662;2024-02-21T14:17:09;2.03;;;1.30;;
11893;SDS011;6006;49.696;8.662;2024-02-21T14:19:38;1.53;;;1.37;;
11893;SDS011;6006;49.696;8.662;2024-02-21T14:22:05;1.80;;;1.70;;
11893;SDS011;6006;49.696;8.662;2024-02-21T14:24:32;2.17;;;1.17;;
11893;SDS011;6006;49.696;8.662;2024-02-21T14:26:59;5.90;;;1.27;;
11893;SDS011;6006;49.696;8.662;2024-02-21T14:29:25;3.27;;;0.90;;
11893;SDS011;6006;49.696;8.662;2024-02-21T14:31:54;3.77;;;1.10;;
11893;SDS011;6006;49.696;8.662;2024-02-21T14:34:20;1.40;;;0.93;;
11893;SDS011;6006;49.696;8.662;2024-02-21T14:36:49;2.47;;;1.40;;
11893;SDS011;6006;49.696;8.662;2024-02-21T14:39:16;1.87;;;1.07;;
11893;SDS011;6006;49.696;8.662;2024-02-21T14:41:42;2.47;;;0.97;;
11893;SDS011;6006;49.696;8.662;2024-02-21T14:44:09;2.53;;;0.80;;
11893;SDS011;6006;49.696;8.662;2024-02-21T14:46:36;3.70;;;1.30;;
11893;SDS011;6006;49.696;8.662;2024-02-21T14:49:04;2.50;;;1.17;;
11893;SDS011;6006;49.696;8.662;2024-02-21T14:51:30;1.37;;;1.27;;
11893;SDS011;6006;49.696;8.662;2024-02-21T14:53:59;4.43;;;1.10;;
11893;SDS011;6006;49.696;8.662;2024-02-21T14:56:26;1.50;;;0.97;;
11893;SDS011;6006;49.696;8.662;2024-02-21T14:58:53;2.30;;;0.93;;
11893;SDS011;6006;49.696;8.662;2024-02-21T15:01:20;2.83;;;1.30;;
11893;SDS011;6006;49.696;8.662;2024-02-21T15:03:47;2.13;;;1.40;;